createdAt,value
2023-05-22T00:01:39.358Z,2.40
2023-05-22T00:04:31.989Z,3.40
2023-05-22T00:07:24.224Z,2.90
2023-05-22T00:10:16.224Z,4.10
2023-05-22T00:13:08.332Z,2.80
2023-05-22T00:16:00.368Z,2.70
2023-05-22T00:18:52.476Z,2.00
2023-05-22T00:21:44.652Z,3.00
2023-05-22T00:24:36.670Z,3.20
2023-05-22T00:27:29.021Z,3.50
2023-05-22T00:30:21.208Z,4.20
2023-05-22T00:33:13.407Z,2.70
2023-05-22T00:36:06.165Z,5.10
2023-05-22T00:38:58.291Z,3.70
2023-05-22T00:41:50.644Z,2.10
2023-05-22T00:44:42.941Z,3.20
2023-05-22T00:47:35.024Z,3.40
2023-05-22T00:50:27.416Z,4.60
2023-05-22T00:53:20.606Z,2.60
2023-05-22T00:56:15.155Z,2.60
2023-05-22T00:59:07.255Z,3.80
2023-05-22T01:01:59.818Z,2.60
2023-05-22T01:04:55.614Z,2.00
2023-05-22T01:07:48.419Z,3.20
2023-05-22T01:10:41.960Z,3.10
2023-05-22T01:13:43.976Z,2.60
2023-05-22T01:16:41.821Z,4.10
2023-05-22T01:19:53.902Z,2.60
2023-05-22T01:23:16.564Z,2.90
2023-05-22T01:29:54.927Z,3.90
2023-05-22T01:32:49.676Z,2.80
2023-05-22T01:35:46.341Z,3.10
2023-05-22T01:38:38.738Z,4.50
2023-05-22T01:41:31.982Z,4.50
2023-05-22T01:44:06.885Z,2.10
2023-05-22T01:47:00.555Z,2.40
2023-05-22T01:49:52.944Z,3.60
2023-05-22T01:52:55.199Z,2.60
2023-05-22T01:55:56.005Z,3.30
2023-05-22T01:58:56.967Z,3.90
2023-05-22T02:01:51.671Z,2.90
2023-05-22T02:04:47.246Z,3.00
2023-05-22T02:07:41.299Z,3.20
2023-05-22T02:10:35.092Z,5.50
2023-05-22T02:13:27.322Z,3.70
2023-05-22T02:16:21.798Z,3.90
2023-05-22T02:19:15.263Z,5.30
2023-05-22T02:22:09.904Z,6.00
2023-05-22T02:25:01.974Z,6.00
2023-05-22T02:27:53.996Z,3.90
2023-05-22T02:30:46.091Z,5.30
2023-05-22T02:33:38.080Z,5.00
2023-05-22T02:36:30.928Z,5.30
2023-05-22T02:39:23.466Z,6.10
2023-05-22T02:42:15.475Z,8.80
2023-05-22T02:45:09.371Z,6.80
2023-05-22T02:48:03.489Z,10.70
2023-05-22T02:53:45.969Z,10.70
2023-05-22T02:56:37.967Z,7.40
2023-05-22T02:59:30.008Z,7.10
2023-05-22T03:02:22.102Z,8.80
2023-05-22T03:05:17.446Z,8.70
2023-05-22T03:08:09.775Z,5.50
2023-05-22T03:11:02.848Z,7.00
2023-05-22T03:13:54.907Z,7.10
2023-05-22T03:16:46.992Z,7.10
2023-05-22T03:19:39.129Z,8.60
2023-05-22T03:22:31.255Z,5.70
2023-05-22T03:25:23.571Z,6.30
2023-05-22T03:28:15.938Z,7.10
2023-05-22T03:30:50.934Z,6.70
2023-05-22T03:33:42.995Z,6.10
2023-05-22T03:36:36.045Z,7.60
2023-05-22T03:39:28.100Z,7.10
2023-05-22T03:42:20.362Z,6.30
2023-05-22T03:45:13.545Z,8.40
2023-05-22T03:48:06.575Z,6.90
2023-05-22T03:50:58.639Z,8.50
2023-05-22T03:53:50.659Z,10.00
2023-05-22T03:56:44.115Z,7.10
2023-05-22T03:59:36.224Z,8.70
2023-05-22T04:02:30.259Z,7.10
2023-05-22T04:05:23.190Z,6.80
2023-05-22T04:08:15.339Z,10.60
2023-05-22T04:11:08.250Z,9.70
2023-05-22T04:14:05.451Z,10.60
2023-05-22T04:16:57.675Z,9.40
2023-05-22T04:19:50.203Z,6.60
2023-05-22T04:22:42.498Z,7.10
2023-05-22T04:25:36.404Z,9.90
2023-05-22T04:28:30.292Z,8.00
2023-05-22T04:31:24.317Z,8.80
2023-05-22T04:34:18.484Z,5.90
2023-05-22T04:40:11.099Z,7.40
2023-05-22T04:43:03.482Z,7.80
2023-05-22T04:45:56.448Z,5.50
2023-05-22T04:48:48.449Z,5.90
2023-05-22T04:51:40.502Z,8.40
2023-05-22T04:54:15.286Z,8.20
2023-05-22T04:57:07.954Z,5.50
2023-05-22T05:00:00.099Z,6.50
2023-05-22T05:02:52.157Z,8.40
2023-05-22T05:05:44.861Z,6.40
2023-05-22T05:08:19.316Z,3.30
2023-05-22T05:11:11.414Z,4.30
2023-05-22T05:14:03.580Z,5.40
2023-05-22T05:16:57.023Z,3.40
2023-05-22T05:19:49.172Z,3.10
2023-05-22T05:22:41.316Z,5.90
2023-05-22T05:25:33.353Z,3.40
2023-05-22T05:28:26.191Z,5.00
2023-05-22T05:31:18.288Z,3.30
2023-05-22T05:34:10.424Z,2.30
2023-05-22T05:37:03.325Z,3.80
2023-05-22T05:39:37.912Z,3.20
2023-05-22T05:42:29.946Z,5.10
2023-05-22T05:45:21.931Z,6.90
2023-05-22T05:48:13.950Z,6.00
2023-05-22T05:51:06.698Z,6.20
2023-05-22T05:53:42.059Z,6.00
2023-05-22T05:56:22.671Z,6.50
2023-05-22T05:59:14.950Z,3.90
2023-05-22T06:02:07.547Z,5.70
2023-05-22T06:04:48.512Z,5.00
2023-05-22T06:07:20.953Z,5.40
2023-05-22T06:10:14.429Z,6.20
2023-05-22T06:13:06.442Z,5.50
2023-05-22T06:16:01.327Z,5.70
2023-05-22T06:18:57.123Z,5.30
2023-05-22T06:21:37.925Z,5.90
2023-05-22T06:24:30.801Z,5.50
2023-05-22T06:27:23.998Z,5.10
2023-05-22T06:30:28.367Z,5.90
2023-05-22T06:33:20.222Z,3.40
2023-05-22T06:36:12.567Z,5.40
2023-05-22T06:39:05.005Z,2.50
2023-05-22T06:41:57.068Z,6.90
2023-05-22T06:44:49.119Z,5.70
2023-05-22T06:47:41.121Z,2.90
2023-05-22T06:50:33.311Z,3.70
2023-05-22T06:53:25.485Z,4.10
2023-05-22T06:56:17.909Z,5.90
2023-05-22T06:59:11.219Z,4.30
2023-05-22T07:02:03.402Z,4.70
2023-05-22T07:04:56.169Z,6.80
2023-05-22T07:07:48.303Z,7.20
2023-05-22T07:10:40.479Z,6.20
2023-05-22T07:13:32.747Z,5.70
2023-05-22T07:16:07.921Z,5.40
2023-05-22T07:19:00.122Z,6.20
2023-05-22T07:21:52.198Z,4.90
2023-05-22T07:24:44.279Z,5.20
2023-05-22T07:27:36.430Z,6.10
2023-05-22T07:30:28.565Z,3.80
2023-05-22T07:33:20.662Z,5.90
2023-05-22T07:36:12.740Z,5.20
2023-05-22T07:39:05.578Z,3.90
2023-05-22T07:41:58.888Z,6.40
2023-05-22T07:44:51.530Z,5.00
2023-05-22T07:47:43.657Z,2.80
2023-05-22T07:50:35.809Z,2.60
2023-05-22T07:53:27.932Z,2.60
2023-05-22T07:56:20.030Z,1.80
2023-05-22T07:59:12.256Z,4.70
2023-05-22T08:01:47.068Z,3.80
2023-05-22T08:04:39.460Z,2.90
2023-05-22T08:07:32.872Z,2.20
2023-05-22T08:10:26.440Z,2.70
2023-05-22T08:13:20.581Z,3.00
2023-05-22T08:16:12.567Z,3.20
2023-05-22T08:19:04.686Z,3.00
2023-05-22T08:21:58.510Z,2.90
2023-05-22T08:24:50.556Z,4.60
2023-05-22T08:27:32.891Z,3.10
2023-05-22T08:30:25.010Z,4.10
2023-05-22T08:33:17.308Z,3.40
2023-05-22T08:36:09.723Z,3.20
2023-05-22T08:39:02.282Z,2.80
2023-05-22T08:41:54.769Z,4.30
2023-05-22T08:44:48.911Z,3.00
2023-05-22T08:50:32.540Z,3.60
2023-05-22T08:53:26.573Z,3.10
2023-05-22T08:56:20.113Z,5.90
2023-05-22T08:59:13.336Z,5.40
2023-05-22T09:02:10.296Z,3.30
2023-05-22T09:05:05.382Z,2.40
2023-05-22T09:08:02.759Z,3.00
2023-05-22T09:10:58.033Z,3.90
2023-05-22T09:13:51.501Z,3.10
2023-05-22T09:16:50.733Z,2.20
2023-05-22T09:19:46.758Z,5.10
2023-05-22T09:22:41.840Z,3.50
2023-05-22T09:25:33.940Z,2.30
2023-05-22T09:28:26.583Z,4.60
2023-05-22T09:31:18.748Z,2.80
2023-05-22T09:34:14.317Z,3.40
2023-05-22T09:37:06.915Z,3.90
2023-05-22T09:39:58.937Z,3.70
2023-05-22T09:42:51.098Z,3.60
2023-05-22T09:45:26.489Z,3.20
2023-05-22T09:48:19.498Z,2.20
2023-05-22T09:51:13.697Z,4.30
2023-05-22T09:54:09.404Z,3.60
2023-05-22T09:57:03.839Z,4.30
2023-05-22T09:59:58.491Z,3.80
2023-05-22T10:02:54.523Z,3.40
2023-05-22T10:05:51.325Z,3.50
2023-05-22T10:08:50.192Z,2.80
2023-05-22T10:11:42.727Z,4.40
2023-05-22T10:14:35.910Z,3.30
2023-05-22T10:17:28.869Z,7.60
2023-05-22T10:20:22.017Z,2.70
2023-05-22T10:23:15.342Z,3.90
2023-05-22T10:26:08.360Z,4.30
2023-05-22T10:29:06.420Z,4.60
2023-05-22T10:32:05.693Z,3.10
2023-05-22T10:35:21.674Z,2.90
2023-05-22T10:38:45.883Z,3.70
2023-05-22T10:41:38.049Z,2.90
2023-05-22T10:44:30.142Z,4.70
2023-05-22T10:47:22.445Z,4.80
2023-05-22T10:50:15.380Z,4.40
2023-05-22T10:52:48.592Z,3.80
2023-05-22T10:55:50.200Z,3.40
2023-05-22T10:58:44.906Z,7.80
2023-05-22T11:01:38.074Z,3.60
2023-05-22T11:04:30.753Z,4.50
2023-05-22T11:07:23.700Z,3.20
2023-05-22T11:10:15.795Z,3.40
2023-05-22T11:13:13.832Z,5.70
2023-05-22T11:16:09.418Z,3.10
2023-05-22T11:19:21.958Z,4.00
2023-05-22T11:22:15.147Z,4.40
2023-05-22T11:25:10.946Z,2.70
2023-05-22T11:27:43.745Z,3.70
2023-05-22T11:30:38.093Z,4.00
2023-05-22T11:33:30.642Z,5.40
2023-05-22T11:36:23.477Z,5.50
2023-05-22T11:39:18.526Z,2.40
2023-05-22T11:42:10.786Z,3.60
2023-05-22T11:45:03.476Z,2.60
2023-05-22T11:47:55.616Z,4.70
2023-05-22T11:50:48.383Z,4.10
2023-05-22T11:53:42.195Z,3.70
2023-05-22T11:56:34.343Z,12.40
2023-05-22T11:59:26.374Z,4.70
2023-05-22T12:02:19.194Z,4.60
2023-05-22T12:05:12.377Z,7.30
2023-05-22T12:08:04.578Z,6.00
2023-05-22T12:10:56.947Z,4.30
2023-05-22T12:13:52.060Z,3.60
2023-05-22T12:16:44.496Z,5.90
2023-05-22T12:19:41.049Z,5.50
2023-05-22T12:22:33.179Z,5.20
2023-05-22T12:25:25.368Z,4.40
2023-05-22T12:28:17.449Z,4.30
2023-05-22T12:31:09.539Z,3.70
2023-05-22T12:34:02.292Z,3.90
2023-05-22T12:36:54.299Z,3.60
2023-05-22T12:39:37.625Z,2.60
2023-05-22T12:42:12.363Z,2.70
2023-05-22T12:45:04.523Z,5.80
2023-05-22T12:47:56.600Z,4.70
2023-05-22T12:50:48.903Z,3.30
2023-05-22T12:53:40.867Z,3.10
2023-05-22T12:56:33.291Z,2.80
2023-05-22T12:59:25.274Z,6.00
2023-05-22T13:02:17.711Z,5.40
2023-05-22T13:05:10.779Z,3.10
2023-05-22T13:08:02.831Z,3.10
2023-05-22T13:10:54.799Z,2.40
2023-05-22T13:13:46.838Z,4.50
2023-05-22T13:16:38.972Z,4.30
2023-05-22T13:19:31.190Z,4.50
2023-05-22T13:22:23.518Z,3.40
2023-05-22T13:25:18.844Z,2.70
2023-05-22T13:28:10.915Z,3.90
2023-05-22T13:31:02.967Z,2.70
2023-05-22T13:33:55.116Z,3.00
2023-05-22T13:36:47.149Z,2.90
2023-05-22T13:39:39.346Z,4.60
2023-05-22T13:42:31.497Z,3.40
2023-05-22T13:45:23.599Z,3.10
2023-05-22T13:48:16.028Z,2.80
2023-05-22T13:50:59.525Z,3.50
2023-05-22T13:53:51.558Z,3.50
2023-05-22T13:56:43.615Z,3.30
2023-05-22T13:59:35.717Z,4.20
2023-05-22T14:02:27.870Z,8.30
2023-05-22T14:05:16.404Z,3.40
2023-05-22T14:08:08.438Z,3.60
2023-05-22T14:11:00.989Z,3.40
2023-05-22T14:13:54.146Z,3.40
2023-05-22T14:16:46.168Z,2.80
2023-05-22T14:19:39.380Z,3.20
2023-05-22T14:22:36.112Z,6.40
2023-05-22T14:25:33.651Z,2.80
2023-05-22T14:28:26.047Z,5.00
2023-05-22T14:31:18.149Z,3.60
2023-05-22T14:34:10.141Z,2.70
2023-05-22T14:37:02.172Z,3.60
2023-05-22T14:39:54.211Z,6.40
2023-05-22T14:42:46.469Z,3.80
2023-05-22T14:45:38.734Z,3.00
2023-05-22T14:48:31.015Z,5.00
2023-05-22T14:51:23.998Z,4.40
2023-05-22T14:54:17.716Z,3.00
2023-05-22T14:57:09.945Z,3.60
2023-05-22T15:00:02.015Z,4.30
2023-05-22T15:02:54.177Z,3.40
2023-05-22T15:05:46.235Z,3.30
2023-05-22T15:08:38.355Z,2.90
2023-05-22T15:11:30.458Z,3.50
2023-05-22T15:14:22.580Z,2.70
2023-05-22T15:17:14.685Z,3.60
2023-05-22T15:20:07.909Z,4.50
2023-05-22T15:23:00.643Z,2.70
2023-05-22T15:25:52.744Z,3.30
2023-05-22T15:28:44.759Z,4.00
2023-05-22T15:31:36.770Z,2.90
2023-05-22T15:34:28.835Z,4.00
2023-05-22T15:37:21.134Z,3.50
2023-05-22T15:40:17.336Z,3.00
2023-05-22T15:43:09.466Z,3.10
2023-05-22T15:46:01.577Z,3.40
2023-05-22T15:48:53.622Z,3.40
2023-05-22T15:51:45.660Z,3.60
2023-05-22T15:54:37.678Z,3.00
2023-05-22T15:57:30.484Z,3.20
2023-05-22T16:00:23.550Z,3.20
2023-05-22T16:03:16.942Z,4.10
2023-05-22T16:06:09.545Z,2.40
2023-05-22T16:09:01.585Z,5.10
2023-05-22T16:11:33.384Z,5.40
2023-05-22T16:14:25.577Z,2.60
2023-05-22T16:17:17.686Z,3.10
2023-05-22T16:20:11.751Z,4.40
2023-05-22T16:23:03.790Z,3.00
2023-05-22T16:25:40.858Z,3.60
2023-05-22T16:28:33.098Z,3.40
2023-05-22T16:31:06.072Z,4.10
2023-05-22T16:33:42.855Z,3.30
2023-05-22T16:36:34.860Z,4.00
2023-05-22T16:39:17.135Z,5.40
2023-05-22T16:42:09.741Z,4.90
2023-05-22T16:45:01.756Z,3.30
2023-05-22T16:47:55.820Z,3.90
2023-05-22T16:50:48.183Z,3.60
2023-05-22T16:53:41.194Z,4.50
2023-05-22T16:56:34.108Z,4.80
2023-05-22T16:59:26.138Z,3.90
2023-05-22T17:02:18.729Z,3.70
2023-05-22T17:04:59.589Z,3.90
2023-05-22T17:07:51.678Z,4.30
2023-05-22T17:10:43.787Z,3.80
2023-05-22T17:13:35.875Z,3.50
2023-05-22T17:16:18.018Z,5.20
2023-05-22T17:19:10.177Z,3.30
2023-05-22T17:22:02.316Z,3.60
2023-05-22T17:24:54.362Z,3.80
2023-05-22T17:27:46.516Z,5.50
2023-05-22T17:30:38.703Z,4.10
2023-05-22T17:33:31.835Z,3.90
2023-05-22T17:36:24.054Z,3.50
2023-05-22T17:39:16.086Z,3.40
2023-05-22T17:41:48.033Z,3.60
2023-05-22T17:44:25.036Z,3.70
2023-05-22T17:47:18.263Z,5.10
2023-05-22T17:50:11.662Z,5.60
2023-05-22T17:53:03.617Z,5.40
2023-05-22T17:55:55.716Z,5.80
2023-05-22T17:58:48.673Z,9.20
2023-05-22T18:01:41.351Z,7.40
2023-05-22T18:04:33.383Z,8.20
2023-05-22T18:07:25.488Z,4.40
2023-05-22T18:10:18.337Z,4.00
2023-05-22T18:13:10.822Z,3.60
2023-05-22T18:16:04.398Z,8.10
2023-05-22T18:18:56.716Z,4.10
2023-05-22T18:21:48.828Z,4.90
2023-05-22T18:24:30.605Z,5.60
2023-05-22T18:27:23.001Z,4.70
2023-05-22T18:30:16.486Z,5.20
2023-05-22T18:32:51.568Z,4.10
2023-05-22T18:35:26.707Z,5.10
2023-05-22T18:38:18.852Z,5.50
2023-05-22T18:41:11.834Z,6.20
2023-05-22T18:44:03.971Z,4.10
2023-05-22T18:46:56.828Z,4.40
2023-05-22T18:49:49.870Z,5.00
2023-05-22T18:52:41.872Z,6.50
2023-05-22T18:55:34.631Z,4.30
2023-05-22T18:58:06.817Z,5.50
2023-05-22T19:00:58.909Z,4.50
2023-05-22T19:03:52.196Z,5.10
2023-05-22T19:06:45.152Z,4.70
2023-05-22T19:09:37.326Z,4.60
2023-05-22T19:12:31.682Z,4.70
2023-05-22T19:15:08.103Z,5.80
2023-05-22T19:18:00.236Z,5.30
2023-05-22T19:20:53.521Z,6.20
2023-05-22T19:23:45.797Z,5.40
2023-05-22T19:26:37.865Z,4.80
2023-05-22T19:29:29.962Z,6.00
2023-05-22T19:32:23.051Z,5.00
2023-05-22T19:35:15.014Z,6.00
2023-05-22T19:38:08.442Z,7.60
2023-05-22T19:41:00.517Z,6.70
2023-05-22T19:43:36.884Z,6.70
2023-05-22T19:46:29.033Z,6.60
2023-05-22T19:49:10.490Z,6.50
2023-05-22T19:52:02.503Z,8.60
2023-05-22T19:54:56.247Z,6.40
2023-05-22T19:57:48.328Z,7.70
2023-05-22T20:00:28.411Z,5.80
2023-05-22T20:03:23.243Z,6.10
2023-05-22T20:06:15.601Z,5.90
2023-05-22T20:09:09.037Z,11.00
2023-05-22T20:12:01.569Z,8.00
2023-05-22T20:14:54.515Z,7.90
2023-05-22T20:17:47.939Z,6.70
2023-05-22T20:20:40.207Z,7.50
2023-05-22T20:23:32.303Z,7.60
2023-05-22T20:26:24.335Z,9.00
2023-05-22T20:29:16.884Z,8.20
2023-05-22T20:32:09.729Z,9.20
2023-05-22T20:35:02.077Z,9.60
2023-05-22T20:37:54.545Z,10.00
2023-05-22T20:40:47.613Z,9.70
2023-05-22T20:43:43.666Z,10.20
2023-05-22T20:46:36.400Z,14.50
2023-05-22T20:49:12.261Z,13.30
2023-05-22T20:52:05.608Z,12.30
2023-05-22T20:54:57.639Z,14.40
2023-05-22T20:57:49.658Z,10.40
2023-05-22T21:00:41.947Z,13.80
2023-05-22T21:03:34.319Z,10.10
2023-05-22T21:06:26.781Z,13.20
2023-05-22T21:09:18.852Z,10.80
2023-05-22T21:12:11.153Z,11.60
2023-05-22T21:15:03.120Z,10.70
2023-05-22T21:17:55.144Z,12.30
2023-05-22T21:20:47.519Z,12.10
2023-05-22T21:23:24.804Z,9.10
2023-05-22T21:26:16.902Z,8.20
2023-05-22T21:29:09.038Z,7.50
2023-05-22T21:32:00.998Z,7.50
2023-05-22T21:34:53.297Z,9.50
2023-05-22T21:37:45.338Z,10.10
2023-05-22T21:40:37.430Z,9.60
2023-05-22T21:43:29.580Z,8.40
2023-05-22T21:46:23.578Z,8.40
2023-05-22T21:49:15.739Z,9.70
2023-05-22T21:52:11.535Z,8.80
2023-05-22T21:55:03.956Z,12.10
2023-05-22T21:57:56.166Z,10.10
2023-05-22T22:00:48.162Z,9.60
2023-05-22T22:03:40.306Z,8.90
2023-05-22T22:06:32.505Z,11.30
2023-05-22T22:09:24.531Z,7.80
2023-05-22T22:12:16.659Z,10.50
2023-05-22T22:15:10.504Z,11.00
2023-05-22T22:18:02.901Z,9.60
2023-05-22T22:20:55.936Z,10.00
2023-05-22T22:23:47.991Z,11.30
2023-05-22T22:26:40.019Z,12.10
2023-05-22T22:29:14.476Z,9.20
2023-05-22T22:32:06.943Z,10.30
2023-05-22T22:34:59.087Z,9.70
2023-05-22T22:37:41.623Z,10.60
2023-05-22T22:40:33.653Z,10.90
2023-05-22T22:43:25.721Z,10.20
2023-05-22T22:46:17.853Z,10.10
2023-05-22T22:49:09.968Z,10.00
2023-05-22T22:52:02.037Z,10.40
2023-05-22T22:54:43.081Z,9.40
2023-05-22T22:57:36.541Z,9.80
2023-05-22T23:00:28.593Z,10.30
2023-05-22T23:03:20.965Z,12.00
2023-05-22T23:06:13.157Z,12.10
2023-05-22T23:09:05.315Z,14.00
2023-05-22T23:11:57.367Z,12.40
2023-05-22T23:14:50.549Z,11.30
2023-05-22T23:17:42.782Z,14.20
2023-05-22T23:20:34.807Z,11.30
2023-05-22T23:23:27.869Z,13.80
2023-05-22T23:26:08.853Z,12.90
2023-05-22T23:29:01.003Z,13.10
2023-05-22T23:31:53.065Z,13.30
2023-05-22T23:34:45.109Z,13.40
2023-05-22T23:37:37.100Z,13.10
2023-05-22T23:40:29.076Z,11.50
2023-05-22T23:43:21.071Z,13.70
2023-05-22T23:46:14.127Z,9.90
2023-05-22T23:49:07.173Z,12.40
2023-05-22T23:51:59.240Z,9.60
2023-05-22T23:54:51.243Z,8.20
2023-05-22T23:57:43.287Z,10.10
